sensor_id;sensor_type;location;lat;lon;timestamp;P1;durP1;ratioP1;P2;durP2;ratioP2
7957;SDS011;4024;52.172;5.378;2024-03-23T00:51:54;21.73;;;9.90;;
7957;SDS011;4024;52.172;5.378;2024-03-23T00:54:20;28.67;;;10.10;;
7957;SDS011;4024;52.172;5.378;2024-03-23T00:56:45;27.50;;;10.57;;
7957;SDS011;4024;52.172;5.378;2024-03-23T00:59:11;26.00;;;10.23;;
7957;SDS011;4024;52.172;5.378;2024-03-23T01:01:36;24.50;;;9.63;;
7957;SDS011;4024;52.172;5.378;2024-03-23T01:04:02;22.47;;;10.13;;
7957;SDS011;4024;52.172;5.378;2024-03-23T01:06:28;31.37;;;10.13;;
7957;SDS011;4024;52.172;5.378;2024-03-23T01:08:53;23.30;;;9.87;;
7957;SDS011;4024;52.172;5.378;2024-03-23T01:11:19;22.43;;;10.67;;
7957;SDS011;4024;52.172;5.378;2024-03-23T01:13:44;29.90;;;10.63;;
7957;SDS011;4024;52.172;5.378;2024-03-23T01:16:10;26.67;;;10.43;;
7957;SDS011;4024;52.172;5.378;2024-03-23T01:18:36;23.37;;;9.93;;
7957;SDS011;4024;52.172;5.378;2024-03-23T01:21:01;29.10;;;11.33;;
7957;SDS011;4024;52.172;5.378;2024-03-23T01:23:27;23.60;;;9.93;;
7957;SDS011;4024;52.172;5.378;2024-03-23T01:25:53;23.00;;;10.23;;
7957;SDS011;4024;52.172;5.378;2024-03-23T01:28:20;24.30;;;10.20;;
7957;SDS011;4024;52.172;5.378;2024-03-23T01:30:46;28.70;;;11.40;;
7957;SDS011;4024;52.172;5.378;2024-03-23T01:33:11;22.57;;;8.93;;
7957;SDS011;4024;52.172;5.378;2024-03-23T01:35:37;23.83;;;9.60;;
7957;SDS011;4024;52.172;5.378;2024-03-23T01:38:03;24.17;;;10.53;;
7957;SDS011;4024;52.172;5.378;2024-03-23T01:40:28;25.13;;;10.50;;
7957;SDS011;4024;52.172;5.378;2024-03-23T01:42:57;24.47;;;10.13;;
7957;SDS011;4024;52.172;5.378;2024-03-23T01:45:24;21.83;;;10.00;;
7957;SDS011;4024;52.172;5.378;2024-03-23T01:47:50;23.73;;;9.80;;
7957;SDS011;4024;52.172;5.378;2024-03-23T01:50:17;26.50;;;10.23;;
7957;SDS011;4024;52.172;5.378;2024-03-23T01:52:42;21.53;;;10.40;;
7957;SDS011;4024;52.172;5.378;2024-03-23T01:55:09;25.37;;;10.20;;
7957;SDS011;4024;52.172;5.378;2024-03-23T01:57:34;27.33;;;9.67;;
7957;SDS011;4024;52.172;5.378;2024-03-23T02:00:00;25.57;;;10.13;;
7957;SDS011;4024;52.172;5.378;2024-03-23T02:02:26;22.83;;;10.47;;
7957;SDS011;4024;52.172;5.378;2024-03-23T02:04:51;21.00;;;9.77;;
7957;SDS011;4024;52.172;5.378;2024-03-23T02:07:17;26.97;;;11.00;;
7957;SDS011;4024;52.172;5.378;2024-03-23T02:09:43;25.37;;;10.13;;
7957;SDS011;4024;52.172;5.378;2024-03-23T02:12:09;24.00;;;9.97;;
7957;SDS011;4024;52.172;5.378;2024-03-23T02:14:34;21.53;;;9.60;;
7957;SDS011;4024;52.172;5.378;2024-03-23T02:17:00;25.27;;;11.10;;
7957;SDS011;4024;52.172;5.378;2024-03-23T02:19:26;25.20;;;10.40;;
7957;SDS011;4024;52.172;5.378;2024-03-23T02:21:51;28.17;;;9.83;;
7957;SDS011;4024;52.172;5.378;2024-03-23T02:24:17;22.70;;;9.80;;
7957;SDS011;4024;52.172;5.378;2024-03-23T02:26:42;29.57;;;10.53;;
7957;SDS011;4024;52.172;5.378;2024-03-23T02:29:08;22.90;;;10.33;;
7957;SDS011;4024;52.172;5.378;2024-03-23T02:31:34;22.40;;;9.00;;
7957;SDS011;4024;52.172;5.378;2024-03-23T02:34:00;28.63;;;9.27;;
7957;SDS011;4024;52.172;5.378;2024-03-23T02:36:26;26.17;;;8.70;;
7957;SDS011;4024;52.172;5.378;2024-03-23T02:38:52;20.30;;;8.00;;
7957;SDS011;4024;52.172;5.378;2024-03-23T02:41:17;22.10;;;8.77;;
7957;SDS011;4024;52.172;5.378;2024-03-23T02:43:48;16.30;;;7.97;;
7957;SDS011;4024;52.172;5.378;2024-03-23T02:46:17;23.27;;;8.43;;
7957;SDS011;4024;52.172;5.378;2024-03-23T02:48:43;21.47;;;7.90;;
7957;SDS011;4024;52.172;5.378;2024-03-23T02:51:08;19.83;;;8.10;;
7957;SDS011;4024;52.172;5.378;2024-03-23T02:53:34;24.07;;;8.10;;
7957;SDS011;4024;52.172;5.378;2024-03-23T02:56:00;17.00;;;7.00;;
7957;SDS011;4024;52.172;5.378;2024-03-23T02:58:25;25.10;;;8.00;;
7957;SDS011;4024;52.172;5.378;2024-03-23T03:00:51;20.53;;;7.83;;
7957;SDS011;4024;52.172;5.378;2024-03-23T03:03:16;18.40;;;7.40;;
7957;SDS011;4024;52.172;5.378;2024-03-23T03:05:42;19.77;;;7.10;;
7957;SDS011;4024;52.172;5.378;2024-03-23T03:08:08;21.20;;;7.67;;
7957;SDS011;4024;52.172;5.378;2024-03-23T03:10:33;21.57;;;7.67;;
7957;SDS011;4024;52.172;5.378;2024-03-23T03:13:01;16.23;;;7.60;;
7957;SDS011;4024;52.172;5.378;2024-03-23T03:15:27;18.07;;;6.57;;
7957;SDS011;4024;52.172;5.378;2024-03-23T03:17:53;22.50;;;7.80;;
7957;SDS011;4024;52.172;5.378;2024-03-23T03:20:18;18.03;;;6.60;;
7957;SDS011;4024;52.172;5.378;2024-03-23T03:22:44;16.77;;;6.67;;
7957;SDS011;4024;52.172;5.378;2024-03-23T03:25:09;14.07;;;6.37;;
7957;SDS011;4024;52.172;5.378;2024-03-23T03:27:35;16.77;;;6.03;;
7957;SDS011;4024;52.172;5.378;2024-03-23T03:30:01;20.17;;;6.37;;
7957;SDS011;4024;52.172;5.378;2024-03-23T03:32:31;17.00;;;5.47;;
7957;SDS011;4024;52.172;5.378;2024-03-23T03:34:57;14.90;;;6.00;;
7957;SDS011;4024;52.172;5.378;2024-03-23T03:37:23;15.00;;;5.17;;
7957;SDS011;4024;52.172;5.378;2024-03-23T03:39:49;13.07;;;5.30;;
7957;SDS011;4024;52.172;5.378;2024-03-23T03:42:14;20.30;;;6.07;;
7957;SDS011;4024;52.172;5.378;2024-03-23T03:44:40;21.43;;;6.30;;
7957;SDS011;4024;52.172;5.378;2024-03-23T03:47:05;16.10;;;5.10;;
7957;SDS011;4024;52.172;5.378;2024-03-23T03:49:31;13.73;;;5.70;;
7957;SDS011;4024;52.172;5.378;2024-03-23T03:51:57;15.23;;;5.37;;
7957;SDS011;4024;52.172;5.378;2024-03-23T03:54:22;20.67;;;6.30;;
7957;SDS011;4024;52.172;5.378;2024-03-23T03:56:48;15.20;;;5.20;;
7957;SDS011;4024;52.172;5.378;2024-03-23T03:59:13;20.17;;;5.77;;
7957;SDS011;4024;52.172;5.378;2024-03-23T04:01:40;13.40;;;4.97;;
7957;SDS011;4024;52.172;5.378;2024-03-23T04:04:05;15.33;;;5.13;;
7957;SDS011;4024;52.172;5.378;2024-03-23T04:06:31;24.40;;;5.70;;
7957;SDS011;4024;52.172;5.378;2024-03-23T04:08:58;18.80;;;5.57;;
7957;SDS011;4024;52.172;5.378;2024-03-23T04:11:23;18.20;;;4.87;;
7957;SDS011;4024;52.172;5.378;2024-03-23T04:13:49;13.63;;;4.93;;
7957;SDS011;4024;52.172;5.378;2024-03-23T04:16:24;14.73;;;4.80;;
7957;SDS011;4024;52.172;5.378;2024-03-23T04:18:53;14.10;;;5.20;;
7957;SDS011;4024;52.172;5.378;2024-03-23T04:21:19;13.83;;;4.40;;
7957;SDS011;4024;52.172;5.378;2024-03-23T04:23:45;15.53;;;4.70;;
7957;SDS011;4024;52.172;5.378;2024-03-23T04:26:11;14.23;;;4.83;;
7957;SDS011;4024;52.172;5.378;2024-03-23T04:28:36;13.53;;;4.97;;
7957;SDS011;4024;52.172;5.378;2024-03-23T04:31:05;12.27;;;4.47;;
7957;SDS011;4024;52.172;5.378;2024-03-23T04:33:31;11.67;;;4.37;;
7957;SDS011;4024;52.172;5.378;2024-03-23T04:35:56;13.03;;;4.23;;
7957;SDS011;4024;52.172;5.378;2024-03-23T04:38:22;15.90;;;4.10;;
7957;SDS011;4024;52.172;5.378;2024-03-23T04:40:54;9.80;;;4.33;;
7957;SDS011;4024;52.172;5.378;2024-03-23T04:43:21;17.73;;;4.70;;
7957;SDS011;4024;52.172;5.378;2024-03-23T04:45:46;17.13;;;4.43;;
7957;SDS011;4024;52.172;5.378;2024-03-23T04:48:12;15.43;;;4.60;;
7957;SDS011;4024;52.172;5.378;2024-03-23T04:50:37;12.63;;;4.57;;
7957;SDS011;4024;52.172;5.378;2024-03-23T04:53:03;12.13;;;4.67;;
7957;SDS011;4024;52.172;5.378;2024-03-23T04:55:29;16.30;;;5.17;;
7957;SDS011;4024;52.172;5.378;2024-03-23T04:57:56;15.90;;;4.50;;
7957;SDS011;4024;52.172;5.378;2024-03-23T05:00:21;18.50;;;5.10;;
7957;SDS011;4024;52.172;5.378;2024-03-23T05:02:48;20.33;;;5.17;;
7957;SDS011;4024;52.172;5.378;2024-03-23T05:05:14;13.83;;;4.90;;
7957;SDS011;4024;52.172;5.378;2024-03-23T05:07:39;13.70;;;4.20;;
7957;SDS011;4024;52.172;5.378;2024-03-23T05:10:06;14.13;;;5.27;;
7957;SDS011;4024;52.172;5.378;2024-03-23T05:12:36;17.43;;;4.17;;
7957;SDS011;4024;52.172;5.378;2024-03-23T05:15:03;18.73;;;5.13;;
7957;SDS011;4024;52.172;5.378;2024-03-23T05:17:29;11.57;;;4.37;;
7957;SDS011;4024;52.172;5.378;2024-03-23T05:19:55;18.60;;;5.07;;
7957;SDS011;4024;52.172;5.378;2024-03-23T05:22:23;14.00;;;4.67;;
7957;SDS011;4024;52.172;5.378;2024-03-23T05:24:48;10.33;;;4.10;;
7957;SDS011;4024;52.172;5.378;2024-03-23T05:27:14;11.70;;;4.30;;
7957;SDS011;4024;52.172;5.378;2024-03-23T05:29:40;16.77;;;4.60;;
7957;SDS011;4024;52.172;5.378;2024-03-23T05:32:06;10.27;;;3.67;;
7957;SDS011;4024;52.172;5.378;2024-03-23T05:34:31;13.10;;;4.80;;
7957;SDS011;4024;52.172;5.378;2024-03-23T05:36:57;12.13;;;4.10;;
7957;SDS011;4024;52.172;5.378;2024-03-23T05:39:23;14.40;;;4.23;;
7957;SDS011;4024;52.172;5.378;2024-03-23T05:41:49;12.40;;;4.20;;
7957;SDS011;4024;52.172;5.378;2024-03-23T05:44:14;13.30;;;4.13;;
7957;SDS011;4024;52.172;5.378;2024-03-23T05:46:40;12.17;;;3.70;;
7957;SDS011;4024;52.172;5.378;2024-03-23T05:49:06;16.97;;;3.90;;
7957;SDS011;4024;52.172;5.378;2024-03-23T05:51:32;10.13;;;3.43;;
7957;SDS011;4024;52.172;5.378;2024-03-23T05:53:58;13.70;;;3.63;;
7957;SDS011;4024;52.172;5.378;2024-03-23T05:56:23;18.83;;;4.17;;
7957;SDS011;4024;52.172;5.378;2024-03-23T05:58:51;13.07;;;3.70;;
7957;SDS011;4024;52.172;5.378;2024-03-23T06:01:16;11.10;;;3.60;;
7957;SDS011;4024;52.172;5.378;2024-03-23T06:03:42;17.10;;;4.37;;
7957;SDS011;4024;52.172;5.378;2024-03-23T06:06:08;12.40;;;3.53;;
7957;SDS011;4024;52.172;5.378;2024-03-23T06:08:36;8.20;;;3.60;;
7957;SDS011;4024;52.172;5.378;2024-03-23T06:11:02;10.43;;;3.40;;
7957;SDS011;4024;52.172;5.378;2024-03-23T06:13:28;11.23;;;3.63;;
7957;SDS011;4024;52.172;5.378;2024-03-23T06:15:55;12.97;;;3.70;;
7957;SDS011;4024;52.172;5.378;2024-03-23T06:18:21;9.30;;;3.47;;
7957;SDS011;4024;52.172;5.378;2024-03-23T06:20:46;10.07;;;4.20;;
7957;SDS011;4024;52.172;5.378;2024-03-23T06:23:12;11.37;;;3.20;;
7957;SDS011;4024;52.172;5.378;2024-03-23T06:25:38;13.43;;;4.23;;
7957;SDS011;4024;52.172;5.378;2024-03-23T06:28:04;12.80;;;3.27;;
7957;SDS011;4024;52.172;5.378;2024-03-23T06:30:29;9.07;;;3.93;;
7957;SDS011;4024;52.172;5.378;2024-03-23T06:32:56;11.03;;;3.47;;
7957;SDS011;4024;52.172;5.378;2024-03-23T06:35:22;16.53;;;3.67;;
7957;SDS011;4024;52.172;5.378;2024-03-23T06:37:48;8.63;;;3.53;;
7957;SDS011;4024;52.172;5.378;2024-03-23T06:40:14;14.37;;;3.80;;
7957;SDS011;4024;52.172;5.378;2024-03-23T06:42:39;13.53;;;3.67;;
7957;SDS011;4024;52.172;5.378;2024-03-23T06:45:05;10.10;;;3.33;;
7957;SDS011;4024;52.172;5.378;2024-03-23T06:47:31;14.00;;;4.00;;
7957;SDS011;4024;52.172;5.378;2024-03-23T06:49:58;15.63;;;3.87;;
7957;SDS011;4024;52.172;5.378;2024-03-23T06:52:26;14.03;;;3.83;;
7957;SDS011;4024;52.172;5.378;2024-03-23T06:54:53;13.50;;;4.20;;
7957;SDS011;4024;52.172;5.378;2024-03-23T06:57:18;11.73;;;3.30;;
7957;SDS011;4024;52.172;5.378;2024-03-23T06:59:44;12.37;;;3.90;;
7957;SDS011;4024;52.172;5.378;2024-03-23T07:02:09;13.93;;;4.33;;
7957;SDS011;4024;52.172;5.378;2024-03-23T07:04:35;9.80;;;3.63;;
7957;SDS011;4024;52.172;5.378;2024-03-23T07:07:01;10.10;;;4.20;;
7957;SDS011;4024;52.172;5.378;2024-03-23T07:09:28;14.07;;;4.00;;
7957;SDS011;4024;52.172;5.378;2024-03-23T07:11:54;12.83;;;4.80;;
7957;SDS011;4024;52.172;5.378;2024-03-23T07:14:21;18.17;;;4.47;;
7957;SDS011;4024;52.172;5.378;2024-03-23T07:16:47;14.90;;;4.33;;
7957;SDS011;4024;52.172;5.378;2024-03-23T07:19:15;10.43;;;4.23;;
7957;SDS011;4024;52.172;5.378;2024-03-23T07:21:46;12.23;;;4.33;;
7957;SDS011;4024;52.172;5.378;2024-03-23T07:24:13;11.23;;;4.33;;
7957;SDS011;4024;52.172;5.378;2024-03-23T07:26:38;9.43;;;4.63;;
7957;SDS011;4024;52.172;5.378;2024-03-23T07:29:04;15.13;;;5.23;;
7957;SDS011;4024;52.172;5.378;2024-03-23T07:31:30;13.33;;;4.53;;
7957;SDS011;4024;52.172;5.378;2024-03-23T07:33:56;9.90;;;4.00;;
7957;SDS011;4024;52.172;5.378;2024-03-23T07:36:21;9.97;;;4.33;;
7957;SDS011;4024;52.172;5.378;2024-03-23T07:38:47;12.43;;;4.73;;
7957;SDS011;4024;52.172;5.378;2024-03-23T07:41:16;16.63;;;5.00;;
7957;SDS011;4024;52.172;5.378;2024-03-23T07:43:43;11.03;;;3.87;;
7957;SDS011;4024;52.172;5.378;2024-03-23T07:46:09;11.30;;;4.27;;
7957;SDS011;4024;52.172;5.378;2024-03-23T07:48:35;11.63;;;4.37;;
7957;SDS011;4024;52.172;5.378;2024-03-23T07:51:05;9.23;;;3.63;;
7957;SDS011;4024;52.172;5.378;2024-03-23T07:53:47;12.37;;;3.90;;
7957;SDS011;4024;52.172;5.378;2024-03-23T07:56:17;11.23;;;4.20;;
7957;SDS011;4024;52.172;5.378;2024-03-23T07:58:43;14.27;;;3.80;;
7957;SDS011;4024;52.172;5.378;2024-03-23T08:01:13;5.87;;;3.40;;
7957;SDS011;4024;52.172;5.378;2024-03-23T08:03:41;13.73;;;4.17;;
7957;SDS011;4024;52.172;5.378;2024-03-23T08:06:09;13.97;;;3.83;;
7957;SDS011;4024;52.172;5.378;2024-03-23T08:08:39;11.77;;;4.10;;
7957;SDS011;4024;52.172;5.378;2024-03-23T08:11:06;12.17;;;3.50;;
7957;SDS011;4024;52.172;5.378;2024-03-23T08:13:32;10.70;;;3.67;;
7957;SDS011;4024;52.172;5.378;2024-03-23T08:15:58;10.33;;;3.60;;
7957;SDS011;4024;52.172;5.378;2024-03-23T08:18:25;12.30;;;3.80;;
7957;SDS011;4024;52.172;5.378;2024-03-23T08:23:35;9.17;;;3.40;;
7957;SDS011;4024;52.172;5.378;2024-03-23T08:26:12;10.17;;;3.83;;
7957;SDS011;4024;52.172;5.378;2024-03-23T08:28:40;12.97;;;3.57;;
7957;SDS011;4024;52.172;5.378;2024-03-23T08:31:07;10.73;;;3.23;;
7957;SDS011;4024;52.172;5.378;2024-03-23T08:33:33;10.63;;;3.73;;
7957;SDS011;4024;52.172;5.378;2024-03-23T08:36:03;9.73;;;3.03;;
7957;SDS011;4024;52.172;5.378;2024-03-23T08:38:33;9.03;;;3.17;;
7957;SDS011;4024;52.172;5.378;2024-03-23T08:41:08;10.00;;;3.00;;
7957;SDS011;4024;52.172;5.378;2024-03-23T08:43:35;11.70;;;3.43;;
7957;SDS011;4024;52.172;5.378;2024-03-23T08:46:05;12.03;;;4.00;;
7957;SDS011;4024;52.172;5.378;2024-03-23T08:48:41;7.93;;;3.20;;
7957;SDS011;4024;52.172;5.378;2024-03-23T08:51:09;9.03;;;3.23;;
7957;SDS011;4024;52.172;5.378;2024-03-23T08:53:35;9.27;;;2.87;;
7957;SDS011;4024;52.172;5.378;2024-03-23T08:56:02;10.13;;;3.33;;
7957;SDS011;4024;52.172;5.378;2024-03-23T08:58:29;10.40;;;2.63;;
7957;SDS011;4024;52.172;5.378;2024-03-23T09:00:56;9.47;;;3.23;;
7957;SDS011;4024;52.172;5.378;2024-03-23T09:03:28;10.83;;;3.13;;
7957;SDS011;4024;52.172;5.378;2024-03-23T09:05:54;10.97;;;3.17;;
7957;SDS011;4024;52.172;5.378;2024-03-23T09:08:21;8.33;;;2.73;;
7957;SDS011;4024;52.172;5.378;2024-03-23T09:10:47;9.90;;;2.70;;
7957;SDS011;4024;52.172;5.378;2024-03-23T09:13:13;6.57;;;2.50;;
7957;SDS011;4024;52.172;5.378;2024-03-23T09:15:45;5.40;;;2.50;;
7957;SDS011;4024;52.172;5.378;2024-03-23T09:18:15;6.87;;;2.43;;
7957;SDS011;4024;52.172;5.378;2024-03-23T09:20:41;9.20;;;3.03;;
7957;SDS011;4024;52.172;5.378;2024-03-23T09:23:06;13.70;;;3.53;;
7957;SDS011;4024;52.172;5.378;2024-03-23T09:25:35;10.23;;;2.70;;
7957;SDS011;4024;52.172;5.378;2024-03-23T09:28:01;6.87;;;3.03;;
7957;SDS011;4024;52.172;5.378;2024-03-23T09:30:27;9.30;;;3.10;;
7957;SDS011;4024;52.172;5.378;2024-03-23T09:32:52;10.87;;;2.97;;
7957;SDS011;4024;52.172;5.378;2024-03-23T09:35:18;6.73;;;2.50;;
7957;SDS011;4024;52.172;5.378;2024-03-23T09:37:44;15.43;;;3.53;;
7957;SDS011;4024;52.172;5.378;2024-03-23T09:40:10;9.57;;;2.90;;
7957;SDS011;4024;52.172;5.378;2024-03-23T09:42:36;7.93;;;2.83;;
7957;SDS011;4024;52.172;5.378;2024-03-23T09:45:04;7.83;;;3.10;;
7957;SDS011;4024;52.172;5.378;2024-03-23T09:47:32;6.03;;;2.73;;
7957;SDS011;4024;52.172;5.378;2024-03-23T09:49:58;9.10;;;3.10;;
7957;SDS011;4024;52.172;5.378;2024-03-23T09:52:25;11.17;;;3.10;;
7957;SDS011;4024;52.172;5.378;2024-03-23T09:54:51;8.97;;;3.37;;
7957;SDS011;4024;52.172;5.378;2024-03-23T09:57:16;7.63;;;3.20;;
7957;SDS011;4024;52.172;5.378;2024-03-23T09:59:42;13.77;;;3.37;;
7957;SDS011;4024;52.172;5.378;2024-03-23T10:02:08;5.73;;;2.93;;
7957;SDS011;4024;52.172;5.378;2024-03-23T10:04:36;10.37;;;3.33;;
7957;SDS011;4024;52.172;5.378;2024-03-23T10:07:14;10.00;;;3.30;;
7957;SDS011;4024;52.172;5.378;2024-03-23T10:09:44;6.47;;;3.33;;
7957;SDS011;4024;52.172;5.378;2024-03-23T10:14:37;14.20;;;3.37;;
7957;SDS011;4024;52.172;5.378;2024-03-23T10:17:12;10.40;;;3.17;;
7957;SDS011;4024;52.172;5.378;2024-03-23T10:19:43;11.03;;;3.37;;
7957;SDS011;4024;52.172;5.378;2024-03-23T10:22:12;9.43;;;3.17;;
7957;SDS011;4024;52.172;5.378;2024-03-23T10:24:39;6.80;;;2.80;;
7957;SDS011;4024;52.172;5.378;2024-03-23T10:27:04;6.40;;;3.27;;
7957;SDS011;4024;52.172;5.378;2024-03-23T10:29:30;7.50;;;2.70;;
7957;SDS011;4024;52.172;5.378;2024-03-23T10:32:09;6.27;;;2.97;;
7957;SDS011;4024;52.172;5.378;2024-03-23T10:34:35;10.47;;;3.20;;
7957;SDS011;4024;52.172;5.378;2024-03-23T10:37:02;10.27;;;3.33;;
7957;SDS011;4024;52.172;5.378;2024-03-23T10:39:32;10.73;;;3.40;;
7957;SDS011;4024;52.172;5.378;2024-03-23T10:42:10;9.00;;;3.03;;
7957;SDS011;4024;52.172;5.378;2024-03-23T10:44:36;9.90;;;3.47;;
7957;SDS011;4024;52.172;5.378;2024-03-23T10:47:03;13.13;;;3.33;;
7957;SDS011;4024;52.172;5.378;2024-03-23T10:49:30;14.80;;;3.30;;
7957;SDS011;4024;52.172;5.378;2024-03-23T10:51:58;8.87;;;2.73;;
7957;SDS011;4024;52.172;5.378;2024-03-23T10:54:30;11.83;;;3.23;;
7957;SDS011;4024;52.172;5.378;2024-03-23T10:57:01;14.60;;;3.00;;
7957;SDS011;4024;52.172;5.378;2024-03-23T10:59:31;9.20;;;3.10;;
7957;SDS011;4024;52.172;5.378;2024-03-23T11:01:58;15.57;;;3.33;;
7957;SDS011;4024;52.172;5.378;2024-03-23T11:04:34;9.63;;;3.43;;
7957;SDS011;4024;52.172;5.378;2024-03-23T11:07:49;10.40;;;4.00;;
7957;SDS011;4024;52.172;5.378;2024-03-23T11:09:50;7.17;;;2.60;;
7957;SDS011;4024;52.172;5.378;2024-03-23T11:12:18;10.00;;;2.80;;
7957;SDS011;4024;52.172;5.378;2024-03-23T11:15:12;10.60;;;2.90;;
7957;SDS011;4024;52.172;5.378;2024-03-23T11:17:38;7.90;;;3.03;;
7957;SDS011;4024;52.172;5.378;2024-03-23T11:20:04;12.87;;;2.70;;
7957;SDS011;4024;52.172;5.378;2024-03-23T11:25:03;10.30;;;3.03;;
7957;SDS011;4024;52.172;5.378;2024-03-23T11:27:37;11.23;;;3.27;;
7957;SDS011;4024;52.172;5.378;2024-03-23T11:30:18;11.30;;;3.20;;
7957;SDS011;4024;52.172;5.378;2024-03-23T11:32:47;8.50;;;2.80;;
7957;SDS011;4024;52.172;5.378;2024-03-23T11:35:30;6.17;;;2.77;;
7957;SDS011;4024;52.172;5.378;2024-03-23T11:38:03;12.03;;;3.43;;
7957;SDS011;4024;52.172;5.378;2024-03-23T11:40:36;7.23;;;2.70;;
7957;SDS011;4024;52.172;5.378;2024-03-23T11:43:10;5.83;;;2.53;;
7957;SDS011;4024;52.172;5.378;2024-03-23T11:45:42;5.50;;;2.83;;
7957;SDS011;4024;52.172;5.378;2024-03-23T11:48:18;10.00;;;2.90;;
7957;SDS011;4024;52.172;5.378;2024-03-23T11:50:55;10.97;;;3.23;;
7957;SDS011;4024;52.172;5.378;2024-03-23T11:53:23;9.77;;;3.13;;
7957;SDS011;4024;52.172;5.378;2024-03-23T11:55:52;8.40;;;2.87;;
7957;SDS011;4024;52.172;5.378;2024-03-23T11:58:23;9.20;;;2.67;;
7957;SDS011;4024;52.172;5.378;2024-03-23T12:00:55;6.13;;;2.80;;
7957;SDS011;4024;52.172;5.378;2024-03-23T12:03:21;9.47;;;2.73;;
7957;SDS011;4024;52.172;5.378;2024-03-23T12:05:50;12.60;;;3.47;;
7957;SDS011;4024;52.172;5.378;2024-03-23T12:08:25;9.27;;;2.70;;
7957;SDS011;4024;52.172;5.378;2024-03-23T12:13:34;15.23;;;3.53;;
7957;SDS011;4024;52.172;5.378;2024-03-23T12:16:13;9.80;;;3.10;;
7957;SDS011;4024;52.172;5.378;2024-03-23T12:18:40;9.93;;;3.07;;
7957;SDS011;4024;52.172;5.378;2024-03-23T12:21:06;9.33;;;2.80;;
7957;SDS011;4024;52.172;5.378;2024-03-23T12:23:32;8.83;;;3.33;;
7957;SDS011;4024;52.172;5.378;2024-03-23T12:25:58;8.47;;;3.20;;
7957;SDS011;4024;52.172;5.378;2024-03-23T12:28:24;11.77;;;2.63;;
7957;SDS011;4024;52.172;5.378;2024-03-23T12:30:53;11.00;;;4.03;;
7957;SDS011;4024;52.172;5.378;2024-03-23T12:33:19;8.00;;;2.97;;
7957;SDS011;4024;52.172;5.378;2024-03-23T12:35:46;11.17;;;3.10;;
7957;SDS011;4024;52.172;5.378;2024-03-23T12:38:12;7.93;;;2.80;;
7957;SDS011;4024;52.172;5.378;2024-03-23T12:40:37;5.80;;;2.80;;
7957;SDS011;4024;52.172;5.378;2024-03-23T12:43:03;10.13;;;2.80;;
7957;SDS011;4024;52.172;5.378;2024-03-23T12:45:29;9.43;;;3.30;;
7957;SDS011;4024;52.172;5.378;2024-03-23T12:47:54;7.43;;;2.63;;
7957;SDS011;4024;52.172;5.378;2024-03-23T12:50:20;9.63;;;2.80;;
7957;SDS011;4024;52.172;5.378;2024-03-23T12:52:47;8.33;;;2.90;;
7957;SDS011;4024;52.172;5.378;2024-03-23T12:55:13;7.97;;;2.83;;
7957;SDS011;4024;52.172;5.378;2024-03-23T12:57:38;9.30;;;3.03;;
7957;SDS011;4024;52.172;5.378;2024-03-23T13:00:06;10.70;;;3.13;;
7957;SDS011;4024;52.172;5.378;2024-03-23T13:02:32;7.70;;;2.70;;
7957;SDS011;4024;52.172;5.378;2024-03-23T13:04:59;12.60;;;2.83;;
7957;SDS011;4024;52.172;5.378;2024-03-23T13:07:25;6.27;;;2.47;;
7957;SDS011;4024;52.172;5.378;2024-03-23T13:09:51;9.63;;;2.77;;
7957;SDS011;4024;52.172;5.378;2024-03-23T13:12:18;8.43;;;2.50;;
7957;SDS011;4024;52.172;5.378;2024-03-23T13:14:46;7.23;;;2.77;;
7957;SDS011;4024;52.172;5.378;2024-03-23T13:17:12;10.23;;;2.97;;
7957;SDS011;4024;52.172;5.378;2024-03-23T13:19:38;9.20;;;2.37;;
7957;SDS011;4024;52.172;5.378;2024-03-23T13:22:04;9.73;;;3.00;;
7957;SDS011;4024;52.172;5.378;2024-03-23T13:24:30;7.30;;;3.03;;
7957;SDS011;4024;52.172;5.378;2024-03-23T13:26:56;10.03;;;2.40;;
7957;SDS011;4024;52.172;5.378;2024-03-23T13:29:22;6.73;;;2.00;;
7957;SDS011;4024;52.172;5.378;2024-03-23T13:31:49;3.77;;;2.10;;
7957;SDS011;4024;52.172;5.378;2024-03-23T13:34:16;4.90;;;1.90;;
7957;SDS011;4024;52.172;5.378;2024-03-23T13:36:42;3.97;;;1.80;;
7957;SDS011;4024;52.172;5.378;2024-03-23T13:39:08;4.63;;;1.90;;
7957;SDS011;4024;52.172;5.378;2024-03-23T13:41:38;2.73;;;1.60;;
7957;SDS011;4024;52.172;5.378;2024-03-23T13:44:05;4.27;;;1.77;;
7957;SDS011;4024;52.172;5.378;2024-03-23T13:46:31;7.13;;;2.17;;
7957;SDS011;4024;52.172;5.378;2024-03-23T13:48:57;6.13;;;2.23;;
7957;SDS011;4024;52.172;5.378;2024-03-23T13:51:23;5.50;;;2.50;;
7957;SDS011;4024;52.172;5.378;2024-03-23T13:53:53;7.47;;;2.53;;
7957;SDS011;4024;52.172;5.378;2024-03-23T13:56:20;8.67;;;2.50;;
7957;SDS011;4024;52.172;5.378;2024-03-23T13:58:46;6.90;;;2.70;;
7957;SDS011;4024;52.172;5.378;2024-03-23T14:01:14;10.33;;;2.67;;
7957;SDS011;4024;52.172;5.378;2024-03-23T14:03:41;8.90;;;2.60;;
7957;SDS011;4024;52.172;5.378;2024-03-23T14:06:08;10.90;;;3.00;;
7957;SDS011;4024;52.172;5.378;2024-03-23T14:08:37;8.53;;;3.20;;
7957;SDS011;4024;52.172;5.378;2024-03-23T14:11:07;7.57;;;2.60;;
7957;SDS011;4024;52.172;5.378;2024-03-23T14:13:36;7.40;;;2.60;;
7957;SDS011;4024;52.172;5.378;2024-03-23T14:16:02;8.77;;;2.60;;
7957;SDS011;4024;52.172;5.378;2024-03-23T14:18:27;9.30;;;2.70;;
7957;SDS011;4024;52.172;5.378;2024-03-23T14:20:57;8.77;;;3.13;;
7957;SDS011;4024;52.172;5.378;2024-03-23T14:23:24;7.57;;;2.70;;
7957;SDS011;4024;52.172;5.378;2024-03-23T14:25:59;6.77;;;2.50;;
7957;SDS011;4024;52.172;5.378;2024-03-23T14:28:25;11.70;;;3.67;;
7957;SDS011;4024;52.172;5.378;2024-03-23T14:30:51;9.53;;;3.77;;
7957;SDS011;4024;52.172;5.378;2024-03-23T14:33:17;7.57;;;2.77;;
7957;SDS011;4024;52.172;5.378;2024-03-23T14:35:48;5.23;;;2.53;;
7957;SDS011;4024;52.172;5.378;2024-03-23T14:38:18;9.40;;;2.90;;
7957;SDS011;4024;52.172;5.378;2024-03-23T14:40:43;7.20;;;2.60;;
7957;SDS011;4024;52.172;5.378;2024-03-23T14:43:09;7.80;;;2.57;;
7957;SDS011;4024;52.172;5.378;2024-03-23T14:45:35;8.87;;;2.90;;
7957;SDS011;4024;52.172;5.378;2024-03-23T14:48:01;8.20;;;3.03;;
7957;SDS011;4024;52.172;5.378;2024-03-23T14:50:27;6.10;;;2.47;;
7957;SDS011;4024;52.172;5.378;2024-03-23T14:52:53;6.07;;;2.07;;
7957;SDS011;4024;52.172;5.378;2024-03-23T14:55:18;4.23;;;1.93;;
7957;SDS011;4024;52.172;5.378;2024-03-23T14:57:44;6.90;;;2.37;;
7957;SDS011;4024;52.172;5.378;2024-03-23T15:00:10;11.03;;;3.07;;
7957;SDS011;4024;52.172;5.378;2024-03-23T15:02:37;6.10;;;2.53;;
7957;SDS011;4024;52.172;5.378;2024-03-23T15:05:03;4.63;;;2.53;;
7957;SDS011;4024;52.172;5.378;2024-03-23T15:07:29;5.83;;;2.80;;
7957;SDS011;4024;52.172;5.378;2024-03-23T15:09:55;7.87;;;2.60;;
7957;SDS011;4024;52.172;5.378;2024-03-23T15:12:21;5.10;;;2.30;;
7957;SDS011;4024;52.172;5.378;2024-03-23T15:14:47;4.37;;;2.43;;
7957;SDS011;4024;52.172;5.378;2024-03-23T15:17:13;3.97;;;2.10;;
7957;SDS011;4024;52.172;5.378;2024-03-23T15:19:38;4.33;;;2.20;;
7957;SDS011;4024;52.172;5.378;2024-03-23T15:22:05;4.17;;;2.00;;
7957;SDS011;4024;52.172;5.378;2024-03-23T15:24:30;5.47;;;2.23;;
7957;SDS011;4024;52.172;5.378;2024-03-23T15:26:56;6.83;;;2.40;;
7957;SDS011;4024;52.172;5.378;2024-03-23T15:29:22;8.77;;;2.43;;
7957;SDS011;4024;52.172;5.378;2024-03-23T15:31:48;5.77;;;2.57;;
7957;SDS011;4024;52.172;5.378;2024-03-23T15:34:17;4.73;;;2.13;;
7957;SDS011;4024;52.172;5.378;2024-03-23T15:36:45;9.93;;;2.67;;
7957;SDS011;4024;52.172;5.378;2024-03-23T15:39:11;5.27;;;2.20;;
7957;SDS011;4024;52.172;5.378;2024-03-23T15:41:38;7.13;;;2.60;;
7957;SDS011;4024;52.172;5.378;2024-03-23T15:44:04;5.67;;;2.17;;
7957;SDS011;4024;52.172;5.378;2024-03-23T15:46:30;9.53;;;2.60;;
7957;SDS011;4024;52.172;5.378;2024-03-23T15:48:56;6.47;;;2.80;;
7957;SDS011;4024;52.172;5.378;2024-03-23T15:51:22;7.30;;;2.40;;
7957;SDS011;4024;52.172;5.378;2024-03-23T15:53:47;9.37;;;2.50;;
7957;SDS011;4024;52.172;5.378;2024-03-23T15:56:13;10.70;;;3.00;;
7957;SDS011;4024;52.172;5.378;2024-03-23T15:58:39;9.43;;;3.00;;
7957;SDS011;4024;52.172;5.378;2024-03-23T16:01:05;8.63;;;3.00;;
7957;SDS011;4024;52.172;5.378;2024-03-23T16:03:33;9.13;;;2.73;;
7957;SDS011;4024;52.172;5.378;2024-03-23T16:06:00;8.13;;;2.80;;